UTTT/TAS METAR and TAF weather

Enter ICAO airport designator
Station Type Date Time Source
UTTT METAR 2023/01/30 11:00 UTC NOAA

UTTT 301100Z 16004KT 2600 FU NSC 05/M02 Q1017 R08L/CLRD70 NOSIG


Station Type Date Time Source
UTTT Decoded METAR 2023/01/30 11:00 UTC NOAA

Tashkent, Uzbekistan (UTTT) 41-16N 069-16E 488M
Jan 30, 2023 - 06:00 AM EST / 2023.01.30 1100 UTC
Wind: from the SSE (160 degrees) at 5 MPH (4 KT):0
Visibility: 1 mile(s):0
Weather: smoke
Temperature: 41 F (5 C)
Dew Point: 28 F (-2 C)
Relative Humidity: 60%
Pressure (altimeter): 30.03 in. Hg (1017 hPa)
ob: UTTT 301100Z 16004KT 2600 FU NSC 05/M02 Q1017 R08L/CLRD70 NOSIG
cycle: 11

Station Type Date Time Source
UTTT TAF 2023/01/30 12:09 UTC NOAA

TAF UTTT 301100Z 3012/3112 26012KT 5000 BR FU FEW030CB BKN100
TEMPO 3012/3019 1500 BR
TEMPO 3019/3103 34014KT 1000 BR SCT010 SCT030CB

Example: see airport list